Time;durP1;ratioP1;P1;durP2;ratioP2;P2;SDS_P1;SDS_P2;PMS_P1;PMS_P2;Temp;Humidity;BMP_temperature;BMP_pressure;BME280_temperature;BME280_humidity;BME280_pressure;Samples;Min_cycle;Max_cycle;Signal;HPM_P1;HPM_P2
2023/06/26 00:01:42;;;;;;;14.48;11.57;;;;;;;;;;5001072;28;20030;-68
2023/06/26 00:04:08;;;;;;;13.93;11.55;;;;;;;;;;5004776;28;20061;-68
2023/06/26 00:06:33;;;;;;;14.20;12.07;;;;;;;;;;5006481;28;20028;-68
2023/06/26 00:08:58;;;;;;;15.70;12.20;;;;;;;;;;5008348;28;20479;-68
2023/06/26 00:11:24;;;;;;;16.10;12.30;;;;;;;;;;5008116;28;20022;-68
2023/06/26 00:13:49;;;;;;;17.52;13.48;;;;;;;;;;5005814;28;20073;-69
2023/06/26 00:16:14;;;;;;;19.48;13.77;;;;;;;;;;5009605;28;20494;-68
2023/06/26 00:18:40;;;;;;;18.60;14.68;;;;;;;;;;5010905;28;20384;-68
2023/06/26 00:21:05;;;;;;;25.38;15.23;;;;;;;;;;5003636;28;20026;-68
2023/06/26 00:23:32;;;;;;;24.52;16.70;;;;;;;;;;5009803;28;20026;-68
2023/06/26 00:25:57;;;;;;;22.15;16.77;;;;;;;;;;5009883;28;20032;-68
2023/06/26 00:28:22;;;;;;;24.42;16.42;;;;;;;;;;5010173;28;20465;-68
2023/06/26 00:30:48;;;;;;;21.05;16.45;;;;;;;;;;5006348;28;20042;-69
2023/06/26 00:33:13;;;;;;;19.75;15.10;;;;;;;;;;5008955;28;20021;-69
2023/06/26 00:35:38;;;;;;;24.27;16.90;;;;;;;;;;5007222;28;20037;-69
2023/06/26 00:38:03;;;;;;;25.05;15.85;;;;;;;;;;5005888;28;20054;-68
2023/06/26 00:40:29;;;;;;;18.77;15.60;;;;;;;;;;5008396;28;20072;-68
2023/06/26 00:42:54;;;;;;;18.48;15.25;;;;;;;;;;5009732;28;20083;-68
2023/06/26 00:45:19;;;;;;;20.60;14.80;;;;;;;;;;5007637;28;20045;-68
2023/06/26 00:47:45;;;;;;;19.67;14.20;;;;;;;;;;5005648;28;20092;-68
2023/06/26 00:50:10;;;;;;;19.42;13.77;;;;;;;;;;5012027;28;20044;-68
2023/06/26 00:52:36;;;;;;;19.38;14.15;;;;;;;;;;5009163;28;20030;-68
2023/06/26 00:55:01;;;;;;;24.42;14.73;;;;;;;;;;5014448;28;20053;-68
2023/06/26 00:59:54;;;;;;;18.27;14.27;;;;;;;;;;5013436;28;20025;-68
2023/06/26 01:02:20;;;;;;;24.33;14.32;;;;;;;;;;5009604;28;20038;-63
2023/06/26 01:04:49;;;;;;;17.90;14.80;;;;;;;;;;5023352;23;20065;-67
2023/06/26 01:07:15;;;;;;;20.45;14.48;;;;;;;;;;5008063;28;20029;-67
2023/06/26 01:09:41;;;;;;;19.38;15.10;;;;;;;;;;5006398;28;20069;-67
2023/06/26 01:12:06;;;;;;;21.10;14.45;;;;;;;;;;5005025;28;20030;-67
2023/06/26 01:14:32;;;;;;;19.90;15.18;;;;;;;;;;5000171;28;20029;-67
2023/06/26 01:16:58;;;;;;;18.10;13.82;;;;;;;;;;5010873;28;20033;-67
2023/06/26 01:19:27;;;;;;;21.60;14.23;;;;;;;;;;5013230;28;20026;-67
2023/06/26 01:21:58;;;;;;;23.35;14.95;;;;;;;;;;5001187;28;20105;-67
2023/06/26 01:24:27;;;;;;;;;;;;;;;;;;5000487;28;20044;-67
2023/06/26 01:26:53;;;;;;;18.10;13.35;;;;;;;;;;4999508;28;19913;-67
2023/06/26 01:29:18;;;;;;;16.35;12.82;;;;;;;;;;5001686;28;20508;-67
2023/06/26 01:31:47;;;;;;;16.75;12.80;;;;;;;;;;5009069;28;20026;-68
2023/06/26 01:34:13;;;;;;;16.00;12.90;;;;;;;;;;5006589;28;20072;-67
2023/06/26 01:36:38;;;;;;;19.63;13.13;;;;;;;;;;4998597;28;20014;-67
2023/06/26 01:39:03;;;;;;;16.30;13.32;;;;;;;;;;5001173;28;20105;-67
2023/06/26 01:41:29;;;;;;;16.38;12.45;;;;;;;;;;4996804;28;20515;-67
2023/06/26 01:44:24;;;;;;;18.02;12.88;;;;;;;;;;5001969;28;20076;-67
2023/06/26 01:47:10;;;;;;;15.48;11.77;;;;;;;;;;4988285;28;20054;-67
2023/06/26 01:50:02;;;;;;;22.05;12.40;;;;;;;;;;5004775;28;20040;-68
2023/06/26 01:52:49;;;;;;;19.23;13.15;;;;;;;;;;5000472;28;20038;-67
2023/06/26 01:55:40;;;;;;;16.52;12.25;;;;;;;;;;5006726;28;20037;-67
2023/06/26 01:58:06;;;;;;;16.50;11.82;;;;;;;;;;5008273;28;20029;-67
2023/06/26 02:00:31;;;;;;;17.98;12.85;;;;;;;;;;5000848;28;20053;-67
2023/06/26 02:02:57;;;;;;;18.50;12.63;;;;;;;;;;5000139;28;20025;-68
2023/06/26 02:05:23;;;;;;;18.25;12.30;;;;;;;;;;5009541;28;20531;-68
2023/06/26 02:07:49;;;;;;;19.33;12.57;;;;;;;;;;5001192;28;20112;-68
2023/06/26 02:10:14;;;;;;;19.88;12.40;;;;;;;;;;5005271;28;20026;-67
2023/06/26 02:12:41;;;;;;;17.63;12.80;;;;;;;;;;5003067;28;20109;-67
2023/06/26 02:15:06;;;;;;;18.38;12.32;;;;;;;;;;4997950;28;20022;-68
2023/06/26 02:17:32;;;;;;;20.85;12.27;;;;;;;;;;5011154;28;20432;-67
2023/06/26 02:19:57;;;;;;;15.88;12.25;;;;;;;;;;5011172;28;20435;-67
2023/06/26 02:22:22;;;;;;;17.92;12.90;;;;;;;;;;5009289;28;20439;-67
2023/06/26 02:24:48;;;;;;;17.85;11.80;;;;;;;;;;5008484;28;20032;-67
2023/06/26 02:27:13;;;;;;;19.35;11.73;;;;;;;;;;5004396;28;20084;-67
2023/06/26 02:29:39;;;;;;;16.27;12.10;;;;;;;;;;5000948;28;20072;-67
2023/06/26 02:32:05;;;;;;;14.85;11.45;;;;;;;;;;4996272;28;20030;-67
2023/06/26 02:34:30;;;;;;;21.75;12.77;;;;;;;;;;5002025;28;20033;-67
2023/06/26 02:36:56;;;;;;;17.83;12.70;;;;;;;;;;4999342;28;20136;-67
2023/06/26 02:39:21;;;;;;;17.25;11.23;;;;;;;;;;5002881;28;20464;-68
2023/06/26 02:41:46;;;;;;;17.38;11.95;;;;;;;;;;5003563;28;20032;-67
2023/06/26 02:44:12;;;;;;;14.40;11.55;;;;;;;;;;5004795;28;20076;-67
2023/06/26 02:46:37;;;;;;;17.80;12.50;;;;;;;;;;5001086;28;20469;-67
2023/06/26 02:49:03;;;;;;;21.83;12.85;;;;;;;;;;4998609;28;20046;-67
2023/06/26 02:51:28;;;;;;;17.65;12.05;;;;;;;;;;4997135;28;20068;-67
2023/06/26 02:53:53;;;;;;;16.52;12.40;;;;;;;;;;5009991;28;20030;-66
2023/06/26 02:56:18;;;;;;;17.50;12.68;;;;;;;;;;5009632;28;20037;-66
2023/06/26 02:58:44;;;;;;;15.98;11.93;;;;;;;;;;5002775;28;20026;-66
2023/06/26 03:01:09;;;;;;;19.25;12.43;;;;;;;;;;5011176;28;20081;-66
2023/06/26 03:03:40;;;;;;;18.17;11.65;;;;;;;;;;4964154;28;1233550;-67
2023/06/26 03:06:05;;;;;;;17.80;11.98;;;;;;;;;;5008010;28;20028;-66
2023/06/26 03:08:31;;;;;;;16.90;11.88;;;;;;;;;;5003474;28;20030;-66
2023/06/26 03:10:57;;;;;;;16.98;11.27;;;;;;;;;;5009538;28;20041;-66
2023/06/26 03:13:22;;;;;;;14.57;10.95;;;;;;;;;;5006778;28;20030;-66
2023/06/26 03:15:47;;;;;;;14.13;11.30;;;;;;;;;;5009552;28;20479;-66
2023/06/26 03:18:13;;;;;;;14.00;10.93;;;;;;;;;;5001640;28;20061;-66
2023/06/26 03:20:38;;;;;;;14.60;11.00;;;;;;;;;;4995267;28;20124;-67
2023/06/26 03:23:03;;;;;;;14.98;11.80;;;;;;;;;;4997491;28;20025;-66
2023/06/26 03:25:29;;;;;;;15.05;11.02;;;;;;;;;;5001709;28;20030;-66
2023/06/26 03:27:54;;;;;;;13.85;11.20;;;;;;;;;;5003413;28;20088;-66
2023/06/26 03:30:19;;;;;;;13.95;11.00;;;;;;;;;;5010253;28;20108;-66
2023/06/26 03:32:44;;;;;;;14.32;11.32;;;;;;;;;;5007911;28;20072;-66
2023/06/26 03:35:10;;;;;;;15.00;11.13;;;;;;;;;;4998485;28;20030;-66
2023/06/26 03:37:35;;;;;;;14.80;10.68;;;;;;;;;;4995268;28;20381;-66
2023/06/26 03:40:00;;;;;;;14.65;11.20;;;;;;;;;;4994467;28;20102;-66
2023/06/26 03:42:25;;;;;;;14.75;10.77;;;;;;;;;;4998188;28;20030;-66
2023/06/26 03:44:51;;;;;;;15.98;11.18;;;;;;;;;;4999294;28;20028;-66
2023/06/26 03:47:16;;;;;;;15.30;10.95;;;;;;;;;;4996766;28;20478;-67
2023/06/26 03:49:42;;;;;;;14.60;10.68;;;;;;;;;;4994081;28;20441;-67
2023/06/26 03:52:07;;;;;;;13.32;9.07;;;;;;;;;;4995817;28;20046;-66
2023/06/26 03:54:33;;;;;;;15.35;9.07;;;;;;;;;;5009782;28;20014;-66
2023/06/26 03:56:58;;;;;;;13.70;9.70;;;;;;;;;;5010117;28;20025;-66
2023/06/26 03:59:24;;;;;;;14.38;9.23;;;;;;;;;;5009377;28;20037;-66
2023/06/26 04:01:49;;;;;;;12.40;8.90;;;;;;;;;;5004068;28;20026;-66
2023/06/26 04:04:14;;;;;;;13.48;9.68;;;;;;;;;;4998225;28;20058;-66
2023/06/26 04:06:40;;;;;;;12.75;8.80;;;;;;;;;;5002326;28;20496;-66
2023/06/26 04:09:05;;;;;;;13.55;8.40;;;;;;;;;;5000336;28;20490;-66
2023/06/26 04:11:31;;;;;;;12.68;8.00;;;;;;;;;;5006478;28;20022;-66
2023/06/26 04:13:56;;;;;;;10.68;8.18;;;;;;;;;;5007157;28;20022;-71
2023/06/26 04:16:24;;;;;;;15.18;8.05;;;;;;;;;;5002280;28;20105;-71
2023/06/26 04:18:50;;;;;;;10.75;7.75;;;;;;;;;;4999881;28;20030;-71
2023/06/26 04:21:16;;;;;;;13.20;7.88;;;;;;;;;;4998663;28;20476;-71
2023/06/26 04:23:41;;;;;;;11.52;7.53;;;;;;;;;;5008909;28;20040;-71
2023/06/26 04:26:07;;;;;;;12.30;7.40;;;;;;;;;;5004440;28;20117;-71
2023/06/26 04:28:32;;;;;;;11.20;7.50;;;;;;;;;;5009722;28;20146;-72
2023/06/26 04:30:58;;;;;;;11.25;7.47;;;;;;;;;;5007812;28;20022;-71
2023/06/26 04:33:24;;;;;;;11.75;7.40;;;;;;;;;;5005335;28;20452;-71
2023/06/26 04:35:49;;;;;;;13.57;8.38;;;;;;;;;;5001075;28;20054;-72
2023/06/26 04:38:15;;;;;;;16.30;8.05;;;;;;;;;;5006114;28;20108;-73
2023/06/26 04:40:40;;;;;;;13.90;8.40;;;;;;;;;;5005243;28;20414;-72
2023/06/26 04:43:05;;;;;;;15.88;8.25;;;;;;;;;;5003991;28;20026;-72
2023/06/26 04:45:31;;;;;;;14.25;7.82;;;;;;;;;;5011377;28;20100;-72
2023/06/26 04:47:56;;;;;;;10.93;7.10;;;;;;;;;;5009024;28;20502;-74
2023/06/26 04:50:22;;;;;;;10.00;6.93;;;;;;;;;;5008667;28;20053;-75
2023/06/26 04:52:47;;;;;;;11.30;7.38;;;;;;;;;;4999886;28;20018;-75
2023/06/26 04:55:13;;;;;;;9.30;6.50;;;;;;;;;;5004000;28;20164;-75
2023/06/26 04:57:38;;;;;;;11.13;7.00;;;;;;;;;;5004892;28;20072;-74
2023/06/26 05:00:09;;;;;;;9.80;6.53;;;;;;;;;;5002399;28;20104;-75
2023/06/26 05:02:34;;;;;;;;;;;;;;;;;;5005158;28;20022;-75
2023/06/26 05:05:00;;;;;;;11.02;6.78;;;;;;;;;;5000414;28;19928;-75
2023/06/26 05:07:25;;;;;;;11.80;6.80;;;;;;;;;;5013724;28;20061;-75
2023/06/26 05:09:50;;;;;;;10.52;6.63;;;;;;;;;;5016569;28;20014;-74
2023/06/26 05:12:16;;;;;;;11.75;7.38;;;;;;;;;;5011443;28;20018;-76
2023/06/26 05:14:41;;;;;;;11.63;6.30;;;;;;;;;;5007852;28;20030;-75
2023/06/26 05:17:06;;;;;;;11.38;6.65;;;;;;;;;;5011451;28;20021;-74
2023/06/26 05:19:31;;;;;;;13.27;6.97;;;;;;;;;;5014682;28;20109;-75
2023/06/26 05:21:57;;;;;;;11.23;6.40;;;;;;;;;;5015723;28;20476;-75
2023/06/26 05:24:23;;;;;;;9.55;6.18;;;;;;;;;;5015292;28;20022;-75
2023/06/26 05:26:48;;;;;;;10.45;6.38;;;;;;;;;;5013521;28;20026;-75
2023/06/26 05:29:14;;;;;;;11.18;5.93;;;;;;;;;;5013103;28;20017;-75
2023/06/26 05:31:40;;;;;;;10.05;6.20;;;;;;;;;;5015026;28;20030;-75
2023/06/26 05:34:06;;;;;;;10.43;5.93;;;;;;;;;;5013774;28;20084;-74
2023/06/26 05:36:33;;;;;;;10.80;6.50;;;;;;;;;;5015590;28;20098;-75
2023/06/26 05:38:59;;;;;;;9.80;6.10;;;;;;;;;;5007466;28;20022;-75
2023/06/26 05:41:24;;;;;;;9.77;6.25;;;;;;;;;;5015926;28;20084;-75
2023/06/26 05:43:49;;;;;;;7.80;6.30;;;;;;;;;;5014092;28;20104;-75
2023/06/26 05:46:15;;;;;;;12.57;6.70;;;;;;;;;;5012428;28;20121;-75
2023/06/26 05:48:40;;;;;;;9.68;6.32;;;;;;;;;;5013895;28;20403;-75
2023/06/26 05:51:06;;;;;;;11.25;6.43;;;;;;;;;;5013990;28;20029;-75
2023/06/26 05:53:31;;;;;;;12.57;7.22;;;;;;;;;;5013098;28;20045;-76
2023/06/26 05:55:57;;;;;;;11.65;6.75;;;;;;;;;;5015467;28;20472;-75
2023/06/26 05:58:23;;;;;;;12.63;6.70;;;;;;;;;;5009439;28;20357;-74
2023/06/26 06:00:49;;;;;;;9.45;6.38;;;;;;;;;;5012492;28;20075;-75
2023/06/26 06:03:14;;;;;;;9.10;6.10;;;;;;;;;;5013328;28;20029;-74
2023/06/26 06:05:39;;;;;;;8.70;5.93;;;;;;;;;;5011298;28;20079;-75
2023/06/26 06:08:04;;;;;;;8.98;6.25;;;;;;;;;;5012155;28;20480;-75
2023/06/26 06:10:30;;;;;;;10.57;6.40;;;;;;;;;;5009900;28;20447;-75
2023/06/26 06:12:55;;;;;;;9.90;6.65;;;;;;;;;;5001394;28;20096;-75
2023/06/26 06:15:21;;;;;;;8.57;6.00;;;;;;;;;;5010526;28;20025;-75
2023/06/26 06:17:46;;;;;;;10.82;6.63;;;;;;;;;;5006911;28;20083;-75
2023/06/26 06:20:11;;;;;;;10.93;6.40;;;;;;;;;;5007787;28;20030;-75
2023/06/26 06:22:37;;;;;;;9.48;6.35;;;;;;;;;;5008404;28;20042;-71
2023/06/26 06:25:02;;;;;;;9.93;6.82;;;;;;;;;;5014115;28;20029;-71
2023/06/26 06:27:28;;;;;;;9.43;6.32;;;;;;;;;;5014170;28;20022;-71
2023/06/26 06:29:53;;;;;;;10.18;6.70;;;;;;;;;;5013617;28;20486;-70
2023/06/26 06:32:18;;;;;;;13.85;6.95;;;;;;;;;;5014913;28;20503;-71
2023/06/26 06:34:44;;;;;;;10.70;7.32;;;;;;;;;;5014799;28;20049;-70
2023/06/26 06:37:09;;;;;;;9.98;7.35;;;;;;;;;;5014606;28;20025;-71
2023/06/26 06:39:34;;;;;;;10.45;6.68;;;;;;;;;;5003565;28;20031;-70
2023/06/26 06:41:59;;;;;;;12.05;7.63;;;;;;;;;;4995283;28;20518;-70
2023/06/26 06:44:25;;;;;;;15.40;8.00;;;;;;;;;;5006003;28;20018;-71
2023/06/26 06:46:50;;;;;;;12.45;8.07;;;;;;;;;;5012126;28;20030;-71
2023/06/26 06:49:15;;;;;;;12.63;8.07;;;;;;;;;;5014153;28;20461;-70
2023/06/26 06:51:41;;;;;;;10.20;7.40;;;;;;;;;;5012124;28;20470;-71
2023/06/26 06:54:06;;;;;;;11.70;7.78;;;;;;;;;;5013729;28;20026;-71
2023/06/26 06:56:31;;;;;;;12.43;7.75;;;;;;;;;;5011115;28;20033;-71
2023/06/26 06:58:57;;;;;;;10.85;7.45;;;;;;;;;;4999749;28;20484;-71
2023/06/26 07:01:22;;;;;;;11.23;7.88;;;;;;;;;;5013786;28;20105;-71
2023/06/26 07:03:47;;;;;;;10.43;7.75;;;;;;;;;;5013568;28;20038;-70
2023/06/26 07:06:13;;;;;;;10.75;7.53;;;;;;;;;;5012466;28;20021;-70
2023/06/26 07:08:38;;;;;;;10.65;7.53;;;;;;;;;;5000398;28;20053;-70
2023/06/26 07:11:04;;;;;;;10.30;7.18;;;;;;;;;;5013635;28;20022;-71
2023/06/26 07:13:29;;;;;;;10.73;7.70;;;;;;;;;;5012376;28;20050;-71
2023/06/26 07:15:54;;;;;;;10.95;7.60;;;;;;;;;;5013580;28;20104;-71
2023/06/26 07:18:19;;;;;;;10.95;7.68;;;;;;;;;;5007394;28;20568;-71
2023/06/26 07:20:45;;;;;;;11.93;7.68;;;;;;;;;;5003389;28;20053;-71
2023/06/26 07:23:10;;;;;;;15.90;8.30;;;;;;;;;;5012523;28;20026;-72
2023/06/26 07:25:36;;;;;;;14.95;7.93;;;;;;;;;;5011140;28;20435;-71
2023/06/26 07:28:01;;;;;;;12.93;8.18;;;;;;;;;;5012410;28;20455;-71
2023/06/26 07:30:26;;;;;;;12.50;7.53;;;;;;;;;;5013197;28;20017;-71
2023/06/26 07:32:51;;;;;;;14.43;8.48;;;;;;;;;;5013477;28;20053;-71
2023/06/26 07:35:17;;;;;;;13.43;8.80;;;;;;;;;;5013918;28;20022;-71
2023/06/26 07:37:42;;;;;;;13.75;9.00;;;;;;;;;;5013905;28;20018;-71
2023/06/26 07:40:08;;;;;;;14.30;8.93;;;;;;;;;;5013580;28;20018;-71
2023/06/26 07:42:33;;;;;;;14.27;8.80;;;;;;;;;;5012721;28;20101;-71
2023/06/26 07:44:58;;;;;;;13.52;7.60;;;;;;;;;;5008344;28;20113;-72
2023/06/26 07:47:24;;;;;;;14.02;7.05;;;;;;;;;;5002845;28;20495;-71
2023/06/26 07:49:49;;;;;;;17.65;7.78;;;;;;;;;;4999464;28;20029;-71
2023/06/26 07:52:15;;;;;;;10.55;6.40;;;;;;;;;;5002450;28;20495;-71
2023/06/26 07:54:40;;;;;;;12.38;6.90;;;;;;;;;;5001441;28;20045;-71
2023/06/26 07:57:08;;;;;;;10.30;6.72;;;;;;;;;;5013205;28;20526;-72
2023/06/26 07:59:34;;;;;;;17.23;7.97;;;;;;;;;;4997956;28;20026;-72
2023/06/26 08:01:59;;;;;;;19.73;8.70;;;;;;;;;;5013500;28;20379;-71
2023/06/26 08:04:26;;;;;;;19.85;8.27;;;;;;;;;;5011843;28;20129;-71
2023/06/26 08:06:52;;;;;;;15.77;7.60;;;;;;;;;;5004416;28;20057;-71
2023/06/26 08:09:18;;;;;;;16.35;8.77;;;;;;;;;;4998338;28;20433;-71
2023/06/26 08:11:43;;;;;;;15.68;9.48;;;;;;;;;;4993759;28;20029;-71
2023/06/26 08:14:09;;;;;;;16.90;10.35;;;;;;;;;;5007792;28;20399;-72
2023/06/26 08:16:34;;;;;;;19.98;11.60;;;;;;;;;;5012242;28;20490;-72
2023/06/26 08:19:00;;;;;;;19.17;12.32;;;;;;;;;;5010291;28;20014;-72
2023/06/26 08:21:25;;;;;;;20.33;13.07;;;;;;;;;;5012485;28;20036;-71
2023/06/26 08:23:50;;;;;;;22.45;13.13;;;;;;;;;;5011393;28;20021;-71
2023/06/26 08:26:15;;;;;;;21.58;12.75;;;;;;;;;;5002529;28;20050;-65
2023/06/26 08:28:41;;;;;;;21.85;11.35;;;;;;;;;;5009475;28;20076;-65
2023/06/26 08:31:06;;;;;;;18.42;10.07;;;;;;;;;;5012070;28;20388;-65
2023/06/26 08:33:31;;;;;;;14.68;9.52;;;;;;;;;;5013304;28;20018;-66
2023/06/26 08:35:57;;;;;;;18.38;9.45;;;;;;;;;;5012586;28;20026;-66
2023/06/26 08:38:22;;;;;;;19.00;10.70;;;;;;;;;;5013148;28;20539;-66
2023/06/26 08:40:47;;;;;;;18.50;9.80;;;;;;;;;;5012749;28;20032;-66
2023/06/26 08:43:13;;;;;;;13.85;8.98;;;;;;;;;;5012164;28;20029;-66
2023/06/26 08:45:38;;;;;;;16.38;10.25;;;;;;;;;;5012435;28;20464;-66
2023/06/26 08:48:06;;;;;;;16.40;10.13;;;;;;;;;;5012936;28;20021;-66
2023/06/26 08:50:33;;;;;;;16.77;10.57;;;;;;;;;;5011185;28;20026;-66
2023/06/26 08:53:11;;;;;;;19.33;10.63;;;;;;;;;;5012406;28;20045;-74
2023/06/26 08:55:38;;;;;;;21.27;10.20;;;;;;;;;;5011856;28;20022;-75
2023/06/26 08:58:04;;;;;;;20.95;10.73;;;;;;;;;;5012700;28;20033;-75
2023/06/26 09:00:30;;;;;;;16.60;9.98;;;;;;;;;;5012404;28;20018;-75
2023/06/26 09:02:55;;;;;;;16.88;9.52;;;;;;;;;;5012513;28;20030;-75
2023/06/26 09:05:21;;;;;;;14.52;9.27;;;;;;;;;;5012398;28;20053;-74
2023/06/26 09:07:46;;;;;;;17.30;9.82;;;;;;;;;;5012930;28;20014;-75
2023/06/26 09:10:11;;;;;;;13.85;8.60;;;;;;;;;;5014030;28;20026;-74
2023/06/26 09:12:37;;;;;;;13.95;8.65;;;;;;;;;;5016480;28;20064;-75
2023/06/26 09:15:04;;;;;;;14.40;7.43;;;;;;;;;;5015617;28;20017;-74
2023/06/26 09:17:30;;;;;;;12.40;6.47;;;;;;;;;;5015611;28;20026;-75
2023/06/26 09:19:56;;;;;;;10.98;6.50;;;;;;;;;;5012345;28;20376;-75
2023/06/26 09:22:22;;;;;;;13.25;6.57;;;;;;;;;;5013485;28;20064;-75
2023/06/26 09:24:48;;;;;;;12.88;6.28;;;;;;;;;;5014648;28;20026;-68
2023/06/26 09:27:13;;;;;;;13.38;6.38;;;;;;;;;;5013640;28;20033;-68
2023/06/26 09:29:39;;;;;;;11.32;6.10;;;;;;;;;;5016268;28;20025;-68
2023/06/26 09:32:04;;;;;;;13.75;5.68;;;;;;;;;;5015380;28;20079;-68
2023/06/26 09:34:32;;;;;;;14.05;6.13;;;;;;;;;;5015429;28;20480;-68
2023/06/26 09:36:58;;;;;;;11.95;5.13;;;;;;;;;;5015800;28;20018;-68
2023/06/26 09:39:24;;;;;;;9.52;4.85;;;;;;;;;;5015097;28;20492;-68
2023/06/26 09:41:49;;;;;;;9.52;4.85;;;;;;;;;;5015316;28;20026;-68
2023/06/26 09:44:15;;;;;;;10.27;4.47;;;;;;;;;;5015000;28;20065;-72
2023/06/26 09:46:41;;;;;;;9.82;4.93;;;;;;;;;;5014857;28;20053;-72
2023/06/26 09:49:13;;;;;;;8.93;4.63;;;;;;;;;;5007308;28;20022;-72
2023/06/26 09:51:39;;;;;;;9.80;4.50;;;;;;;;;;5013751;28;20022;-72
2023/06/26 09:54:05;;;;;;;9.18;4.13;;;;;;;;;;5014344;28;20080;-72
2023/06/26 09:56:31;;;;;;;6.63;3.80;;;;;;;;;;5015443;28;20022;-72
2023/06/26 09:58:59;;;;;;;8.55;3.50;;;;;;;;;;5015328;28;20026;-72
2023/06/26 10:01:25;;;;;;;6.43;2.95;;;;;;;;;;5014398;28;20017;-72
2023/06/26 10:03:50;;;;;;;6.50;2.90;;;;;;;;;;5014255;28;20057;-73
2023/06/26 10:06:19;;;;;;;7.57;2.97;;;;;;;;;;5014793;28;20075;-76
2023/06/26 10:08:44;;;;;;;6.75;2.70;;;;;;;;;;5013695;28;20022;-76
2023/06/26 10:11:12;;;;;;;6.28;2.90;;;;;;;;;;5012480;28;20535;-75
2023/06/26 10:13:42;;;;;;;7.32;2.40;;;;;;;;;;5003821;28;20073;-75
2023/06/26 10:16:08;;;;;;;5.93;2.15;;;;;;;;;;5013006;28;20030;-75
2023/06/26 10:18:36;;;;;;;5.20;2.13;;;;;;;;;;5012261;28;20448;-75
2023/06/26 10:21:03;;;;;;;7.65;2.17;;;;;;;;;;5013582;28;20105;-75
2023/06/26 10:23:29;;;;;;;8.57;2.53;;;;;;;;;;5014243;28;20356;-75
2023/06/26 10:25:56;;;;;;;7.78;2.70;;;;;;;;;;5010025;28;20391;-75
2023/06/26 10:28:22;;;;;;;5.82;2.25;;;;;;;;;;5012647;28;20045;-76
2023/06/26 10:30:50;;;;;;;6.18;2.30;;;;;;;;;;5013110;28;20042;-75
2023/06/26 10:33:16;;;;;;;8.43;2.20;;;;;;;;;;5010594;28;20032;-75
2023/06/26 10:35:45;;;;;;;5.50;1.92;;;;;;;;;;5011869;28;20025;-74
2023/06/26 10:38:10;;;;;;;6.57;1.80;;;;;;;;;;5014518;28;20044;-74
2023/06/26 10:40:45;;;;;;;4.60;1.50;;;;;;;;;;5002094;28;20021;-75
2023/06/26 10:43:11;;;;;;;7.22;1.95;;;;;;;;;;5012206;28;20112;-75
2023/06/26 10:45:42;;;;;;;3.83;1.38;;;;;;;;;;5013554;28;20022;-75
2023/06/26 10:48:07;;;;;;;;;;;;;;;;;;5010439;28;20104;-75
2023/06/26 10:50:37;;;;;;;5.07;1.70;;;;;;;;;;5011753;28;19996;-75
2023/06/26 10:53:24;;;;;;;5.78;1.70;;;;;;;;;;5012967;28;20063;-75
2023/06/26 10:56:00;;;;;;;5.85;1.80;;;;;;;;;;5014666;28;20021;-75
2023/06/26 10:58:55;;;;;;;5.40;1.70;;;;;;;;;;5013527;28;20092;-76
2023/06/26 11:01:23;;;;;;;4.32;1.60;;;;;;;;;;5001461;28;20491;-75
2023/06/26 11:03:50;;;;;;;5.40;1.65;;;;;;;;;;5012919;28;20077;-75
2023/06/26 11:06:17;;;;;;;4.22;1.60;;;;;;;;;;5012753;28;20036;-75
2023/06/26 11:08:49;;;;;;;4.68;1.60;;;;;;;;;;5014128;28;20032;-74
2023/06/26 11:11:14;;;;;;;5.80;1.50;;;;;;;;;;5013488;28;20507;-67
2023/06/26 11:13:40;;;;;;;6.13;1.90;;;;;;;;;;5014424;28;20022;-67
2023/06/26 11:16:05;;;;;;;7.22;1.70;;;;;;;;;;5013380;28;20025;-68
2023/06/26 11:18:31;;;;;;;5.22;1.67;;;;;;;;;;5009798;28;20499;-67
2023/06/26 11:21:03;;;;;;;4.43;1.73;;;;;;;;;;5002138;28;20044;-67
2023/06/26 11:23:29;;;;;;;8.75;2.17;;;;;;;;;;5011606;28;20064;-68
2023/06/26 11:25:55;;;;;;;5.18;1.70;;;;;;;;;;5011978;28;20115;-68
2023/06/26 11:28:21;;;;;;;5.88;1.60;;;;;;;;;;5010525;28;20033;-68
2023/06/26 11:30:46;;;;;;;4.05;1.65;;;;;;;;;;5013232;28;20021;-68
2023/06/26 11:33:11;;;;;;;8.02;1.92;;;;;;;;;;5009817;28;20498;-68
2023/06/26 11:35:38;;;;;;;6.10;1.67;;;;;;;;;;5012828;28;20030;-67
2023/06/26 11:38:06;;;;;;;5.55;1.60;;;;;;;;;;5013153;28;20053;-67
2023/06/26 11:40:35;;;;;;;5.10;1.50;;;;;;;;;;5011803;28;20026;-67
2023/06/26 11:43:01;;;;;;;7.25;1.42;;;;;;;;;;5011756;28;20028;-67
2023/06/26 11:45:30;;;;;;;5.68;1.40;;;;;;;;;;5012521;28;20021;-67
2023/06/26 11:47:56;;;;;;;3.92;1.33;;;;;;;;;;5011747;28;20037;-67
2023/06/26 11:50:22;;;;;;;4.75;1.75;;;;;;;;;;5010499;28;20400;-67
2023/06/26 11:52:52;;;;;;;6.07;1.80;;;;;;;;;;5009540;28;20383;-66
2023/06/26 11:55:18;;;;;;;5.45;1.40;;;;;;;;;;5008202;28;20476;-67
2023/06/26 11:57:48;;;;;;;4.05;1.60;;;;;;;;;;5012544;28;20026;-67
2023/06/26 12:00:14;;;;;;;6.65;1.70;;;;;;;;;;5011225;28;20048;-67
2023/06/26 12:02:39;;;;;;;4.28;1.40;;;;;;;;;;5009343;28;20259;-67
2023/06/26 12:05:06;;;;;;;6.38;1.40;;;;;;;;;;5007210;28;20069;-67
2023/06/26 12:07:31;;;;;;;4.05;1.40;;;;;;;;;;5012311;28;20029;-68
2023/06/26 12:09:58;;;;;;;3.90;1.27;;;;;;;;;;5013009;28;20034;-68
2023/06/26 12:12:23;;;;;;;4.93;1.30;;;;;;;;;;5013509;28;20076;-68
2023/06/26 12:14:49;;;;;;;4.45;1.20;;;;;;;;;;5009161;28;20089;-67
2023/06/26 12:17:14;;;;;;;5.07;1.42;;;;;;;;;;4999177;28;20075;-67
2023/06/26 12:19:43;;;;;;;5.50;1.50;;;;;;;;;;5011026;28;20021;-67
2023/06/26 12:22:09;;;;;;;6.28;1.67;;;;;;;;;;5011395;28;20026;-67
2023/06/26 12:24:42;;;;;;;3.90;1.50;;;;;;;;;;5008531;28;20112;-67
2023/06/26 12:27:12;;;;;;;3.90;1.50;;;;;;;;;;5005844;28;20021;-67
2023/06/26 12:29:38;;;;;;;4.28;1.50;;;;;;;;;;5010429;28;20490;-67
2023/06/26 12:32:05;;;;;;;5.95;2.05;;;;;;;;;;5010933;28;20411;-67
2023/06/26 12:34:31;;;;;;;8.38;1.50;;;;;;;;;;5009852;28;20022;-66
2023/06/26 12:37:00;;;;;;;4.80;1.65;;;;;;;;;;5012563;28;20026;-67
2023/06/26 12:39:27;;;;;;;5.35;1.65;;;;;;;;;;5004076;28;20073;-67
2023/06/26 12:41:53;;;;;;;5.55;1.67;;;;;;;;;;5010574;28;20113;-67
2023/06/26 12:44:24;;;;;;;7.38;1.58;;;;;;;;;;5012268;28;20030;-67
2023/06/26 12:46:53;;;;;;;3.78;1.60;;;;;;;;;;5014928;28;20100;-67
2023/06/26 12:49:19;;;;;;;7.93;1.63;;;;;;;;;;5015912;28;20424;-67
2023/06/26 12:51:44;;;;;;;4.80;1.48;;;;;;;;;;5016781;28;20022;-67
2023/06/26 12:54:10;;;;;;;6.43;1.30;;;;;;;;;;5012475;28;20036;-67
2023/06/26 12:56:35;;;;;;;6.50;1.60;;;;;;;;;;5016549;28;20472;-67
2023/06/26 12:59:01;;;;;;;6.78;1.52;;;;;;;;;;5015543;28;20052;-67
2023/06/26 13:01:27;;;;;;;4.55;1.58;;;;;;;;;;5016691;28;20028;-67
2023/06/26 13:03:53;;;;;;;3.47;1.30;;;;;;;;;;5015800;28;20500;-67
2023/06/26 13:06:18;;;;;;;4.65;1.27;;;;;;;;;;5016620;28;20037;-69
2023/06/26 13:08:43;;;;;;;6.93;1.50;;;;;;;;;;5016361;28;20029;-67
2023/06/26 13:11:09;;;;;;;3.35;1.40;;;;;;;;;;5016678;28;20021;-67
2023/06/26 13:13:34;;;;;;;8.25;1.90;;;;;;;;;;5015517;28;20357;-67
2023/06/26 13:16:00;;;;;;;4.75;1.50;;;;;;;;;;5016560;28;20448;-67
2023/06/26 13:18:25;;;;;;;3.97;1.40;;;;;;;;;;5013866;28;20025;-67
2023/06/26 13:20:51;;;;;;;9.13;1.58;;;;;;;;;;5014383;28;20427;-67
2023/06/26 13:23:16;;;;;;;4.85;1.13;;;;;;;;;;5015517;28;20030;-67
2023/06/26 13:25:41;;;;;;;4.72;1.20;;;;;;;;;;5014816;28;20367;-67
2023/06/26 13:28:07;;;;;;;4.15;1.30;;;;;;;;;;5014616;28;20041;-67
2023/06/26 13:30:32;;;;;;;8.18;1.45;;;;;;;;;;5013198;28;20380;-67
2023/06/26 13:32:57;;;;;;;6.10;1.52;;;;;;;;;;5012499;28;20029;-67
2023/06/26 13:35:23;;;;;;;6.05;1.70;;;;;;;;;;5015605;28;20022;-66
2023/06/26 13:37:48;;;;;;;3.65;1.52;;;;;;;;;;5013970;28;20029;-67
2023/06/26 13:40:13;;;;;;;4.22;1.60;;;;;;;;;;5007303;28;20105;-67
2023/06/26 13:42:40;;;;;;;5.10;1.65;;;;;;;;;;4996222;28;20023;-67
2023/06/26 13:45:05;;;;;;;3.17;1.35;;;;;;;;;;5005813;28;20041;-67
2023/06/26 13:47:31;;;;;;;3.25;1.30;;;;;;;;;;5012122;28;20026;-67
2023/06/26 13:49:56;;;;;;;3.78;1.50;;;;;;;;;;5008022;28;20428;-66
2023/06/26 13:52:21;;;;;;;3.78;1.40;;;;;;;;;;5015242;28;20054;-67
2023/06/26 13:54:46;;;;;;;5.18;1.80;;;;;;;;;;5013016;28;20038;-66
2023/06/26 13:57:12;;;;;;;7.45;1.70;;;;;;;;;;5015693;28;20451;-66
2023/06/26 13:59:39;;;;;;;6.72;1.80;;;;;;;;;;5014610;28;20021;-66
2023/06/26 14:02:05;;;;;;;8.70;1.75;;;;;;;;;;5012349;28;20029;-66
2023/06/26 14:04:30;;;;;;;4.47;1.50;;;;;;;;;;5013375;28;20064;-66
2023/06/26 14:06:56;;;;;;;8.40;1.70;;;;;;;;;;5014995;28;20113;-67
2023/06/26 14:09:21;;;;;;;4.63;1.30;;;;;;;;;;5013546;28;20029;-67
2023/06/26 14:11:47;;;;;;;4.25;1.77;;;;;;;;;;5014476;28;20025;-67
2023/06/26 14:14:12;;;;;;;4.05;1.38;;;;;;;;;;5012357;28;20030;-67
2023/06/26 14:16:39;;;;;;;6.13;1.50;;;;;;;;;;5013577;28;20037;-67
2023/06/26 14:19:05;;;;;;;5.15;1.50;;;;;;;;;;5008240;28;20025;-67
2023/06/26 14:21:30;;;;;;;5.35;1.50;;;;;;;;;;5011223;28;20096;-67
2023/06/26 14:23:55;;;;;;;2.97;1.27;;;;;;;;;;5006741;28;20026;-68
2023/06/26 14:26:21;;;;;;;4.95;1.60;;;;;;;;;;5004376;28;20361;-67
2023/06/26 14:28:46;;;;;;;5.05;1.55;;;;;;;;;;5006611;28;20029;-66